createdAt,value
2018-03-08T00:00:30.181Z,93807.20
2018-03-08T00:02:58.485Z,93803.59
2018-03-08T00:05:26.780Z,93800.12
2018-03-08T00:07:55.074Z,93801.46
2018-03-08T00:10:23.360Z,93802.55
2018-03-08T00:12:51.716Z,93797.59
2018-03-08T00:15:20.044Z,93800.67
2018-03-08T00:17:48.335Z,93794.77
2018-03-08T00:20:16.662Z,93794.52
2018-03-08T00:22:44.949Z,93789.17
2018-03-08T00:25:13.225Z,93785.95
2018-03-08T00:27:41.515Z,93774.45
2018-03-08T00:30:09.825Z,93781.00
2018-03-08T00:32:38.138Z,93782.88
2018-03-08T00:35:06.454Z,93779.81
2018-03-08T00:37:34.803Z,93778.32
2018-03-08T00:40:03.096Z,93777.53
2018-03-08T00:42:31.387Z,93776.59
2018-03-08T00:44:59.694Z,93771.23
2018-03-08T00:47:27.998Z,93769.36
2018-03-08T00:49:56.352Z,93759.98
2018-03-08T00:52:24.659Z,93760.94
2018-03-08T00:54:52.948Z,93755.19
2018-03-08T00:57:21.235Z,93753.16
2018-03-08T00:59:49.537Z,93748.89
2018-03-08T01:02:17.899Z,93743.78
2018-03-08T01:04:46.188Z,93747.01
2018-03-08T01:07:14.503Z,93745.67
2018-03-08T01:09:42.815Z,93738.44
2018-03-08T01:12:11.094Z,93730.80
2018-03-08T01:14:39.426Z,93730.80
2018-03-08T01:17:07.723Z,93718.77
2018-03-08T01:19:36.020Z,93719.70
2018-03-08T01:22:04.321Z,93718.37
2018-03-08T01:24:32.621Z,93716.09
2018-03-08T01:27:00.910Z,93712.47
2018-03-08T01:29:29.199Z,93709.00
2018-03-08T01:31:57.483Z,93694.29
2018-03-08T01:34:25.795Z,93699.09
2018-03-08T01:36:54.153Z,93698.16
2018-03-08T01:39:22.441Z,93700.25
2018-03-08T01:41:50.736Z,93689.73
2018-03-08T01:44:19.046Z,93695.48
2018-03-08T01:46:47.344Z,93702.16
2018-03-08T01:49:15.643Z,93700.98
2018-03-08T01:51:55.231Z,93699.09
2018-03-08T01:54:23.532Z,93690.13
2018-03-08T01:56:51.841Z,93687.45
2018-03-08T01:59:20.313Z,93678.23
2018-03-08T02:01:48.602Z,93674.22
2018-03-08T02:04:16.876Z,93671.16
2018-03-08T02:06:45.244Z,93668.48
2018-03-08T02:09:13.557Z,93667.14
2018-03-08T02:11:41.845Z,93675.56
2018-03-08T02:14:10.141Z,93677.30
2018-03-08T02:16:38.434Z,93675.02
2018-03-08T02:19:06.766Z,93673.28
2018-03-08T02:21:35.043Z,93679.58
2018-03-08T02:24:03.329Z,93674.77
2018-03-08T02:26:31.641Z,93666.74
2018-03-08T02:28:59.977Z,93668.63
2018-03-08T02:31:28.271Z,93659.66
2018-03-08T02:33:56.558Z,93665.01
2018-03-08T02:36:24.900Z,93666.74
2018-03-08T02:38:53.191Z,93669.27
2018-03-08T02:41:21.490Z,93668.33
2018-03-08T02:43:49.770Z,93670.06
2018-03-08T02:46:18.120Z,93670.61
2018-03-08T02:48:46.452Z,93667.38
2018-03-08T02:51:14.735Z,93671.77
2018-03-08T02:53:43.024Z,93670.27
2018-03-08T02:56:11.310Z,93665.32
2018-03-08T02:58:39.625Z,93665.86
2018-03-08T03:01:07.941Z,93662.25
2018-03-08T03:03:36.226Z,93664.92
2018-03-08T03:06:04.527Z,93660.91
2018-03-08T03:08:32.806Z,93650.60
2018-03-08T03:11:01.108Z,93654.22
2018-03-08T03:13:29.398Z,93650.20
2018-03-08T03:15:57.673Z,93644.06
2018-03-08T03:18:27.473Z,93640.84
2018-03-08T03:20:55.913Z,93636.83
2018-03-08T03:23:25.247Z,93648.08
2018-03-08T03:25:53.998Z,93645.80
2018-03-08T03:28:22.301Z,93639.50
2018-03-08T03:30:50.606Z,93628.80
2018-03-08T03:33:18.918Z,93627.31
2018-03-08T03:35:47.214Z,93626.12
2018-03-08T03:38:15.489Z,93626.52
2018-03-08T03:40:43.782Z,93622.51
2018-03-08T03:43:12.084Z,93625.19
2018-03-08T03:45:40.383Z,93622.51
2018-03-08T03:48:08.669Z,93619.05
2018-03-08T03:50:37.054Z,93620.38
2018-03-08T03:53:05.338Z,93625.23
2018-03-08T03:55:33.622Z,93615.55
2018-03-08T03:58:01.918Z,93622.44
2018-03-08T04:00:30.217Z,93612.63
2018-03-08T04:02:58.532Z,93604.13
2018-03-08T04:05:26.904Z,93597.77
2018-03-08T04:07:55.089Z,93593.61
2018-03-08T04:10:23.409Z,93600.39
2018-03-08T04:12:51.762Z,93609.45
2018-03-08T04:15:20.060Z,93607.23
2018-03-08T04:17:48.344Z,93595.94
2018-03-08T04:20:16.647Z,93591.14
2018-03-08T04:22:44.956Z,93596.83
2018-03-08T04:25:13.242Z,93595.30
2018-03-08T04:27:41.537Z,93594.66
2018-03-08T04:30:09.838Z,93595.30
2018-03-08T04:32:38.132Z,93602.39
2018-03-08T04:35:06.452Z,93599.66
2018-03-08T04:37:34.775Z,93607.63
2018-03-08T04:40:03.085Z,93610.30
2018-03-08T04:42:31.427Z,93609.45
2018-03-08T04:44:59.726Z,93601.28
2018-03-08T04:47:28.023Z,93600.58
2018-03-08T04:49:56.334Z,93601.61
2018-03-08T04:52:24.657Z,93600.28
2018-03-08T04:54:52.965Z,93596.51
2018-03-08T04:57:21.294Z,93592.73
2018-03-08T04:59:49.585Z,93595.42
2018-03-08T05:02:19.667Z,93591.86
2018-03-08T05:04:47.976Z,93599.09
2018-03-08T05:07:16.389Z,93602.02
2018-03-08T05:09:44.674Z,93603.20
2018-03-08T05:12:12.963Z,93598.24
2018-03-08T05:14:41.275Z,93603.98
2018-03-08T05:17:09.573Z,93601.71
2018-03-08T05:19:38.052Z,93604.39
2018-03-08T05:22:06.409Z,93609.58
2018-03-08T05:24:34.738Z,93618.41
2018-03-08T05:27:03.058Z,93615.33
2018-03-08T05:29:31.539Z,93618.25
2018-03-08T05:31:59.826Z,93621.56
2018-03-08T05:34:28.136Z,93623.84
2018-03-08T05:36:56.487Z,93624.63
2018-03-08T05:39:24.781Z,93622.75
2018-03-08T05:41:53.085Z,93628.89
2018-03-08T05:44:21.400Z,93635.83
2018-03-08T05:46:49.714Z,93631.81
2018-03-08T05:49:18.026Z,93629.75
2018-03-08T05:51:46.329Z,93636.83
2018-03-08T05:54:17.903Z,93629.98
2018-03-08T05:56:46.190Z,93631.33
2018-03-08T05:59:14.507Z,93632.27
2018-03-08T06:01:42.799Z,93630.38
2018-03-08T06:04:11.109Z,93624.09
2018-03-08T06:06:39.395Z,93624.88
2018-03-08T06:09:07.705Z,93621.27
2018-03-08T06:11:36.044Z,93621.66
2018-03-08T06:14:04.378Z,93616.98
2018-03-08T06:16:32.662Z,93616.43
2018-03-08T06:19:00.949Z,93618.71
2018-03-08T06:21:29.257Z,93616.03
2018-03-08T06:23:57.554Z,93626.59
2018-03-08T06:26:26.619Z,93626.19
2018-03-08T06:28:54.920Z,93621.25
2018-03-08T06:31:23.216Z,93618.00
2018-03-08T06:33:51.538Z,93620.14
2018-03-08T06:36:19.826Z,93619.84
2018-03-08T06:38:48.167Z,93617.94
2018-03-08T06:41:16.443Z,93619.95
2018-03-08T06:43:44.748Z,93615.48
2018-03-08T06:46:13.099Z,93614.95
2018-03-08T06:48:41.391Z,93610.19
2018-03-08T06:51:09.674Z,93610.83
2018-03-08T06:53:38.006Z,93607.09
2018-03-08T07:50:52.737Z,93617.77
2018-03-08T07:53:21.043Z,93615.98
2018-03-08T07:55:49.324Z,93619.95
2018-03-08T07:58:17.637Z,93621.93
2018-03-08T08:00:45.930Z,93625.20
2018-03-08T08:03:14.223Z,93629.48
2018-03-08T08:05:53.697Z,93629.08
2018-03-08T08:11:31.880Z,93640.68
2018-03-08T08:14:00.159Z,93645.23
2018-03-08T08:16:28.498Z,93643.36
2018-03-08T08:18:56.783Z,93647.50
2018-03-08T08:21:25.080Z,93650.20
2018-03-08T08:23:53.419Z,93646.17
2018-03-08T08:26:21.702Z,93657.30
2018-03-08T08:28:50.861Z,93648.32
2018-03-08T08:31:19.159Z,93651.47
2018-03-08T08:33:47.445Z,93645.25
2018-03-08T08:36:15.779Z,93640.21
2018-03-08T08:38:44.073Z,93644.37
2018-03-08T08:41:12.373Z,93639.06
2018-03-08T08:43:40.676Z,93637.95
2018-03-08T08:46:09.004Z,93639.52
2018-03-08T08:48:37.317Z,93637.25
2018-03-08T08:51:05.610Z,93639.66
2018-03-08T08:53:33.889Z,93642.64
2018-03-08T08:56:02.201Z,93645.80
2018-03-08T08:58:30.487Z,93642.54
2018-03-08T09:00:58.778Z,93648.05
2018-03-08T09:03:27.077Z,93649.70
2018-03-08T09:05:55.366Z,93648.72
2018-03-08T09:08:23.685Z,93647.60
2018-03-08T09:13:47.858Z,93647.60
2018-03-08T09:16:16.150Z,93652.80
2018-03-08T09:18:44.217Z,93653.20
2018-03-08T09:21:12.502Z,93653.67
2018-03-08T09:23:40.805Z,93652.84
2018-03-08T09:26:09.104Z,93654.91
2018-03-08T09:28:37.578Z,93656.84
2018-03-08T09:31:05.874Z,93651.95
2018-03-08T09:33:34.184Z,93651.84
2018-03-08T09:36:02.468Z,93653.45
2018-03-08T09:38:30.802Z,93659.87
2018-03-08T09:40:59.082Z,93655.23
2018-03-08T09:43:27.381Z,93655.55
2018-03-08T09:45:55.689Z,93659.15
2018-03-08T09:48:23.999Z,93658.21
2018-03-08T09:50:52.342Z,93667.77
2018-03-08T09:53:20.647Z,93665.89
2018-03-08T09:55:48.960Z,93670.03
2018-03-08T09:58:17.289Z,93670.00
2018-03-08T10:00:45.594Z,93669.86
2018-03-08T10:03:13.882Z,93675.44
2018-03-08T10:05:42.169Z,93675.30
2018-03-08T10:08:10.477Z,93667.70
2018-03-08T10:10:38.764Z,93678.36
2018-03-08T10:13:07.058Z,93675.84
2018-03-08T10:15:35.406Z,93677.17
2018-03-08T10:18:03.690Z,93671.94
2018-03-08T10:20:31.974Z,93674.07
2018-03-08T10:23:00.265Z,93669.81
2018-03-08T10:25:28.577Z,93673.78
2018-03-08T10:27:56.890Z,93675.12
2018-03-08T10:30:25.200Z,93676.45
2018-03-08T10:32:53.485Z,93676.13
2018-03-08T10:35:21.821Z,93679.73
2018-03-08T10:37:50.159Z,93680.13
2018-03-08T10:40:18.475Z,93681.21
2018-03-08T10:42:46.773Z,93686.25
2018-03-08T10:45:15.143Z,93694.25
2018-03-08T10:47:43.629Z,93690.11
2018-03-08T10:50:11.964Z,93692.23
2018-03-08T10:52:40.273Z,93690.36
2018-03-08T10:55:09.219Z,93697.42
2018-03-08T10:57:37.554Z,93687.70
2018-03-08T11:00:05.790Z,93686.47
2018-03-08T11:02:34.845Z,93687.33
2018-03-08T11:05:03.790Z,93684.03
2018-03-08T11:07:32.105Z,93693.29
2018-03-08T11:10:00.387Z,93689.87
2018-03-08T11:12:28.678Z,93694.94
2018-03-08T11:14:56.995Z,93696.52
2018-03-08T11:17:25.274Z,93694.47
2018-03-08T11:19:53.556Z,93702.61
2018-03-08T11:22:21.856Z,93689.02
2018-03-08T11:24:50.324Z,93696.36
2018-03-08T11:27:18.616Z,93700.25
2018-03-08T11:29:46.921Z,93698.57
2018-03-08T11:32:15.250Z,93707.00
2018-03-08T11:34:43.550Z,93706.66
2018-03-08T11:37:11.891Z,93713.00
2018-03-08T11:39:40.202Z,93711.03
2018-03-08T11:42:09.277Z,93716.36
2018-03-08T11:44:37.006Z,93720.97
2018-03-08T11:47:05.317Z,93722.77
2018-03-08T11:49:33.626Z,93725.55
2018-03-08T11:52:01.914Z,93725.49
2018-03-08T11:54:30.213Z,93725.98
2018-03-08T11:56:58.565Z,93731.25
2018-03-08T11:59:26.878Z,93732.00
2018-03-08T12:01:55.179Z,93726.60
2018-03-08T12:04:23.493Z,93723.84
2018-03-08T12:06:51.780Z,93723.16
2018-03-08T12:09:20.067Z,93723.25
2018-03-08T12:11:48.357Z,93719.09
2018-03-08T12:14:16.633Z,93724.14
2018-03-08T12:16:44.953Z,93725.83
2018-03-08T12:19:13.171Z,93727.63
2018-03-08T12:21:41.494Z,93735.89
2018-03-08T12:24:09.781Z,93734.80
2018-03-08T12:26:38.105Z,93735.69
2018-03-08T12:29:06.407Z,93735.94
2018-03-08T12:31:34.767Z,93741.14
2018-03-08T12:34:03.243Z,93742.87
2018-03-08T12:36:31.525Z,93745.55
2018-03-08T12:38:59.866Z,93755.70
2018-03-08T12:41:28.181Z,93752.63
2018-03-08T12:43:56.495Z,93757.44
2018-03-08T12:46:24.832Z,93771.20
2018-03-08T12:48:53.286Z,93780.02
2018-03-08T12:51:21.597Z,93792.99
2018-03-08T12:53:49.905Z,93795.13
2018-03-08T12:56:18.281Z,93797.40
2018-03-08T12:58:46.577Z,93802.75
2018-03-08T13:01:26.987Z,93804.63
2018-03-08T13:03:55.382Z,93819.34
2018-03-08T13:06:23.674Z,93825.88
2018-03-08T13:08:51.958Z,93836.17
2018-03-08T13:11:20.242Z,93838.12
2018-03-08T13:13:48.553Z,93835.95
2018-03-08T13:16:16.855Z,93841.25
2018-03-08T13:18:45.147Z,93845.52
2018-03-08T13:21:13.434Z,93854.83
2018-03-08T13:23:41.727Z,93857.57
2018-03-08T13:26:10.067Z,93856.48
2018-03-08T13:28:38.376Z,93854.60
2018-03-08T13:31:06.734Z,93859.80
2018-03-08T13:33:35.021Z,93863.27
2018-03-08T13:36:03.148Z,93865.45
2018-03-08T13:38:31.434Z,93867.58
2018-03-08T13:40:59.731Z,93870.00
2018-03-08T13:43:28.119Z,93873.37
2018-03-08T13:45:56.418Z,93874.09
2018-03-08T13:48:24.745Z,93874.54
2018-03-08T13:50:53.046Z,93885.23
2018-03-08T13:53:21.325Z,93893.80
2018-03-08T13:55:49.605Z,93905.05
2018-03-08T13:58:17.877Z,93912.53
2018-03-08T14:00:46.199Z,93918.52
2018-03-08T14:03:14.517Z,93910.50
2018-03-08T14:05:43.019Z,93916.25
2018-03-08T14:08:11.320Z,93914.36
2018-03-08T14:10:39.597Z,93919.72
2018-03-08T14:13:07.746Z,93924.66
2018-03-08T14:15:36.031Z,93926.55
2018-03-08T14:18:04.478Z,93928.43
2018-03-08T14:20:32.782Z,93933.78
2018-03-08T14:23:01.093Z,93939.13
2018-03-08T14:25:29.387Z,93936.05
2018-03-08T14:27:57.693Z,93943.14
2018-03-08T14:30:26.041Z,93944.08
2018-03-08T14:32:54.408Z,93950.22
2018-03-08T14:35:22.854Z,93946.61
2018-03-08T14:37:51.130Z,93954.63
2018-03-08T14:40:19.425Z,93957.30
2018-03-08T14:42:47.714Z,93965.19
2018-03-08T14:45:16.009Z,93962.91
2018-03-08T14:47:44.298Z,93974.25
2018-03-08T14:50:12.753Z,93969.67
2018-03-08T14:52:41.027Z,93979.03
2018-03-08T14:55:09.570Z,93985.42
2018-03-08T14:57:37.959Z,93984.88
2018-03-08T15:00:06.244Z,93987.02
2018-03-08T15:02:34.523Z,93997.71
2018-03-08T15:05:02.811Z,93997.56
2018-03-08T15:07:31.103Z,94007.72
2018-03-08T15:09:59.391Z,94013.08
2018-03-08T15:12:27.826Z,94014.41
2018-03-08T15:14:56.204Z,94026.45
2018-03-08T15:17:24.504Z,94033.39
2018-03-08T15:19:52.831Z,94039.42
2018-03-08T15:22:21.113Z,94046.22
2018-03-08T15:24:49.458Z,94047.56
2018-03-08T15:27:17.742Z,94055.59
2018-03-08T15:29:46.024Z,94062.92
2018-03-08T15:32:14.387Z,94064.91
2018-03-08T15:34:42.666Z,94073.11
2018-03-08T15:37:10.973Z,94073.33
2018-03-08T15:39:39.310Z,94076.03
2018-03-08T15:42:07.586Z,94086.98
2018-03-08T15:44:35.863Z,94104.73
2018-03-08T15:47:04.152Z,94106.00
2018-03-08T15:49:32.445Z,94113.62
2018-03-08T15:52:00.738Z,94112.14
2018-03-08T15:54:29.034Z,94126.43
2018-03-08T15:56:57.394Z,94136.66
2018-03-08T15:59:25.706Z,94135.47
2018-03-08T16:01:53.991Z,94145.23
2018-03-08T16:04:22.341Z,94143.24
2018-03-08T16:10:36.308Z,94157.60
2018-03-08T16:13:04.600Z,94164.88
2018-03-08T16:15:32.888Z,94174.31
2018-03-08T16:18:01.230Z,94176.34
2018-03-08T16:20:29.635Z,94185.05
2018-03-08T16:22:57.916Z,94195.08
2018-03-08T16:25:26.221Z,94203.25
2018-03-08T16:27:54.513Z,94213.30
2018-03-08T16:30:22.804Z,94213.44
2018-03-08T16:32:51.120Z,94213.22
2018-03-08T16:35:19.410Z,94220.20
2018-03-08T16:37:47.710Z,94229.70
2018-03-08T16:40:16.003Z,94233.87
2018-03-08T16:42:44.304Z,94246.59
2018-03-08T16:45:12.609Z,94251.55
2018-03-08T16:47:40.901Z,94254.36
2018-03-08T16:50:09.328Z,94268.58
2018-03-08T16:52:37.634Z,94269.11
2018-03-08T16:55:05.918Z,94278.80
2018-03-08T16:57:34.243Z,94282.02
2018-03-08T17:00:02.534Z,94289.24
2018-03-08T17:02:30.809Z,94292.60
2018-03-08T17:04:59.099Z,94300.37
2018-03-08T17:07:27.451Z,94306.66
2018-03-08T17:09:55.737Z,94311.22
2018-03-08T17:12:24.030Z,94320.04
2018-03-08T17:14:52.376Z,94324.20
2018-03-08T17:17:20.685Z,94330.77
2018-03-08T17:19:48.962Z,94339.99
2018-03-08T17:22:17.313Z,94339.19
2018-03-08T17:24:45.609Z,94343.09
2018-03-08T17:27:13.916Z,94347.25
2018-03-08T17:29:42.247Z,94353.05
2018-03-08T17:32:10.617Z,94359.74
